SAEZ/EZE METAR and TAF weather

Enter ICAO airport designator
Station Type Date Time Source
SAEZ METAR 2020/01/24 09:00 UTC NOAA

SAEZ 240900Z 02005KT CAVOK 23/17 Q1012 NOSIG


Station Type Date Time Source
SAEZ Decoded METAR 2020/01/24 09:00 UTC NOAA

Ezeiza Aerodrome, Argentina (SAEZ) 34-49S 058-32W 20M
Jan 24, 2020 - 04:00 AM EST / 2020.01.24 0900 UTC
Wind: from the NNE (020 degrees) at 6 MPH (5 KT):0
Visibility: greater than 7 mile(s):0
Temperature: 73 F (23 C)
Dew Point: 62 F (17 C)
Relative Humidity: 68%
Pressure (altimeter): 29.88 in. Hg (1012 hPa)
ob: SAEZ 240900Z 02005KT CAVOK 23/17 Q1012 NOSIG
cycle: 9

Station Type Date Time Source
SAEZ TAF 2020/01/24 06:06 UTC NOAA

TAF TAF SAEZ 240500Z 2406/2506 02005KT CAVOK TX34/2418Z TN20/2409Z
TEMPO 2406/2409 6000
BECMG 2409/2411 36015KT
BECMG 2414/2416 34010KT

Example: see airport list